Time;durP1;ratioP1;P1;durP2;ratioP2;P2;SDS_P1;SDS_P2;PMS_P1;PMS_P2;Temp;Humidity;BMP_temperature;BMP_pressure;BME280_temperature;BME280_humidity;BME280_pressure;Samples;Min_cycle;Max_cycle;Signal;HPM_P1;HPM_P2
2023/06/19 00:01:57;;;;;;;16.35;12.32;;;16.30;99.90;;;15.72;100.00;100766.88;4167577;28;20025;-76
2023/06/19 00:03:58;;;;;;;14.93;11.15;;;16.30;99.90;;;15.70;100.00;100764.44;4184643;28;20071;-75
2023/06/19 00:05:58;;;;;;;15.50;11.23;;;16.30;99.90;;;15.70;100.00;100763.59;4183953;28;20029;-75
2023/06/19 00:07:59;;;;;;;17.88;11.98;;;16.20;99.90;;;15.65;100.00;100766.00;4185061;28;20499;-76
2023/06/19 00:10:00;;;;;;;19.23;13.20;;;16.20;99.90;;;15.68;100.00;100776.28;4185013;28;20033;-75
2023/06/19 00:12:01;;;;;;;15.27;11.75;;;16.20;99.90;;;15.65;100.00;100763.34;4184970;28;20021;-75
2023/06/19 00:14:02;;;;;;;16.15;11.75;;;16.20;99.90;;;15.67;100.00;100774.63;4167051;28;20125;-75
2023/06/19 00:16:04;;;;;;;18.35;11.85;;;16.20;99.90;;;15.62;100.00;100767.19;4170431;28;20029;-75
2023/06/19 00:18:06;;;;;;;17.58;12.50;;;16.20;99.90;;;15.55;100.00;100762.81;4188099;28;20561;-75
2023/06/19 00:20:09;;;;;;;14.55;11.82;;;16.20;99.90;;;15.67;100.00;100787.91;4170825;28;20033;-75
2023/06/19 00:22:10;;;;;;;16.83;11.38;;;16.20;99.90;;;15.68;100.00;100784.25;4186727;28;20527;-76
2023/06/19 00:24:11;;;;;;;18.20;11.88;;;16.20;99.90;;;15.58;100.00;100773.09;4170697;28;20040;-75
2023/06/19 00:26:14;;;;;;;19.25;12.75;;;16.20;99.90;;;15.64;100.00;100786.47;4188214;28;20028;-75
2023/06/19 00:28:19;;;;;;;17.92;11.85;;;16.20;99.90;;;15.63;100.00;100783.97;4188235;28;20440;-75
2023/06/19 00:30:20;;;;;;;20.50;12.57;;;16.20;99.90;;;15.61;100.00;100783.34;4188278;28;20033;-76
2023/06/19 00:32:21;;;;;;;21.23;12.48;;;16.20;99.90;;;15.61;100.00;100786.00;4170210;28;20033;-76
2023/06/19 00:34:25;;;;;;;19.98;13.10;;;16.10;99.90;;;15.62;100.00;100788.47;4203299;28;20029;-76
2023/06/19 00:36:26;;;;;;;17.05;12.35;;;16.20;99.90;;;15.55;100.00;100779.59;4170474;28;20031;-76
2023/06/19 00:38:27;;;;;;;14.13;11.68;;;16.10;99.90;;;15.55;100.00;100781.44;4170560;28;20021;-76
2023/06/19 00:40:31;;;;;;;16.90;11.80;;;16.10;99.90;;;15.47;100.00;100764.56;4170297;28;20064;-75
2023/06/19 00:42:32;;;;;;;22.10;13.32;;;16.10;99.90;;;15.56;100.00;100783.09;4170444;28;20412;-75
2023/06/19 00:44:32;;;;;;;18.30;12.82;;;16.10;99.90;;;15.53;100.00;100791.44;4187832;28;20037;-76
2023/06/19 00:46:37;;;;;;;18.45;12.75;;;16.10;99.90;;;15.54;100.00;100785.09;4187957;28;20024;-76
2023/06/19 00:48:39;;;;;;;16.88;12.43;;;16.10;99.90;;;15.50;100.00;100772.16;4170029;28;20037;-75
2023/06/19 00:50:40;;;;;;;19.58;13.27;;;16.10;99.90;;;15.50;100.00;100774.03;4170116;28;20029;-75
2023/06/19 00:52:41;;;;;;;19.80;13.32;;;16.10;99.90;;;15.48;100.00;100774.19;4169935;28;20448;-75
2023/06/19 00:54:42;;;;;;;17.88;12.55;;;16.00;99.90;;;15.45;100.00;100777.19;4170109;28;20540;-75
2023/06/19 00:56:43;;;;;;;18.92;13.75;;;16.00;99.90;;;15.49;100.00;100788.31;4153631;28;20030;-75
2023/06/19 00:58:44;;;;;;;16.50;11.75;;;16.00;99.90;;;15.47;100.00;100780.53;4188196;28;20116;-76
2023/06/19 01:00:45;;;;;;;16.75;12.43;;;16.00;99.90;;;15.46;100.00;100778.84;4186287;28;20033;-75
2023/06/19 01:02:47;;;;;;;21.05;13.77;;;16.00;99.90;;;15.46;100.00;100783.34;4187292;28;20017;-76
2023/06/19 01:04:48;;;;;;;19.00;12.45;;;16.00;99.90;;;15.44;100.00;100777.41;4203134;28;20032;-75
2023/06/19 01:06:59;;;;;;;19.52;13.25;;;16.00;99.90;;;15.40;100.00;100774.28;4187530;28;20025;-75
2023/06/19 01:09:13;;;;;;;16.40;11.70;;;16.00;99.90;;;15.38;100.00;100781.59;4170085;28;20056;-75
2023/06/19 01:11:21;;;;;;;18.60;12.03;;;15.90;99.90;;;15.35;100.00;100779.31;4187599;28;20036;-75
2023/06/19 01:13:48;;;;;;;18.17;11.38;;;15.90;99.90;;;15.31;100.00;100780.72;4187259;28;20036;-76
2023/06/19 01:15:50;;;;;;;15.55;10.27;;;15.90;99.90;;;15.30;100.00;100779.06;4188764;28;20128;-75
2023/06/19 01:17:52;;;;;;;15.95;10.38;;;15.90;99.90;;;15.26;100.00;100784.94;4185869;28;20025;-76
2023/06/19 01:19:54;;;;;;;13.18;9.80;;;15.80;99.90;;;15.14;100.00;100768.63;4185957;28;20044;-76
2023/06/19 01:21:55;;;;;;;13.98;10.07;;;15.80;99.90;;;15.23;100.00;100790.63;4185784;28;20029;-76
2023/06/19 01:23:56;;;;;;;20.45;12.90;;;15.80;99.90;;;15.20;100.00;100783.03;4169584;28;20040;-76
2023/06/19 01:25:56;;;;;;;19.55;12.40;;;15.80;99.90;;;15.19;100.00;100784.84;4186955;28;20382;-75
2023/06/19 01:27:58;;;;;;;21.75;12.55;;;15.80;99.90;;;15.28;100.00;100797.03;4169647;28;20029;-75
2023/06/19 01:30:00;;;;;;;22.08;12.07;;;15.80;99.90;;;15.19;100.00;100773.41;4187055;28;20032;-76
2023/06/19 01:32:14;;;;;;;11.80;10.05;;;15.80;99.90;;;15.20;100.00;100783.81;4169242;28;20404;-76
2023/06/19 01:34:20;;;;;;;14.57;10.48;;;15.80;99.90;;;15.19;100.00;100778.72;4162511;28;20421;-76
2023/06/19 01:36:23;;;;;;;17.25;11.20;;;15.80;99.90;;;15.21;100.00;100790.81;4169764;28;20030;-75
2023/06/19 01:38:27;;;;;;;16.50;10.23;;;15.80;99.90;;;15.18;100.00;100788.50;4169590;28;20024;-75
2023/06/19 01:40:31;;;;;;;15.15;11.77;;;15.70;99.90;;;15.15;100.00;100786.22;4187074;28;20768;-76
2023/06/19 01:42:34;;;;;;;16.58;11.57;;;15.70;99.90;;;15.16;100.00;100779.91;4169589;28;20492;-76
2023/06/19 01:44:35;;;;;;;17.20;11.38;;;15.70;99.90;;;15.19;100.00;100781.38;4186820;28;20021;-76
2023/06/19 01:46:37;;;;;;;17.45;11.80;;;15.70;99.90;;;15.11;100.00;100768.19;4169449;28;20030;-76
2023/06/19 01:48:39;;;;;;;15.38;10.15;;;15.70;99.90;;;15.16;100.00;100789.72;4186879;28;20063;-76
2023/06/19 01:50:45;;;;;;;17.85;11.57;;;15.70;99.90;;;15.05;100.00;100763.63;4169253;28;20099;-76
2023/06/19 01:52:46;;;;;;;18.60;11.57;;;15.70;99.90;;;15.14;100.00;100784.56;4173005;28;20063;-76
2023/06/19 01:54:47;;;;;;;17.60;13.25;;;15.70;99.90;;;15.14;100.00;100779.25;4202427;28;20024;-76
2023/06/19 01:56:48;;;;;;;17.38;12.10;;;15.70;99.90;;;15.04;100.00;100770.75;4186731;28;20507;-76
2023/06/19 01:58:48;;;;;;;20.20;12.32;;;15.70;99.90;;;15.12;100.00;100786.59;4169140;28;20040;-76
2023/06/19 02:00:49;;;;;;;17.48;10.65;;;15.70;99.90;;;14.98;100.00;100758.22;4168731;28;20452;-76
2023/06/19 02:02:50;;;;;;;14.85;11.02;;;15.70;99.90;;;14.96;100.00;100754.91;4168703;28;20091;-76
2023/06/19 02:04:51;;;;;;;18.77;10.73;;;15.60;99.90;;;15.09;100.00;100781.66;4169071;28;20045;-76
2023/06/19 02:06:52;;;;;;;13.30;9.88;;;15.60;99.90;;;15.03;100.00;100776.25;4168468;28;20041;-76
2023/06/19 02:08:53;;;;;;;17.45;10.85;;;15.60;99.90;;;15.02;100.00;100775.44;4186520;28;20035;-76
2023/06/19 02:10:54;;;;;;;18.23;10.68;;;15.60;99.90;;;15.05;100.00;100771.59;4168989;28;20040;-76
2023/06/19 02:12:55;;;;;;;16.80;11.27;;;15.60;99.90;;;15.04;100.00;100767.28;4168855;28;20026;-76
2023/06/19 02:14:56;;;;;;;12.95;10.95;;;15.60;99.90;;;14.99;100.00;100759.88;4186462;28;20381;-76
2023/06/19 02:16:57;;;;;;;15.13;10.82;;;15.60;99.90;;;15.11;100.00;100769.03;4168773;28;20049;-76
2023/06/19 02:18:58;;;;;;;19.73;12.05;;;15.60;99.90;;;15.13;100.00;100767.00;4185919;28;20063;-76
2023/06/19 02:20:59;;;;;;;16.17;11.32;;;15.70;99.90;;;14.98;100.00;100738.78;4186411;28;20028;-76
2023/06/19 02:22:59;;;;;;;15.18;10.73;;;15.70;99.90;;;15.03;100.00;100755.81;4186158;28;20100;-76
2023/06/19 02:25:00;;;;;;;16.75;11.30;;;15.70;99.90;;;15.09;100.00;100759.56;4201540;28;20028;-76
2023/06/19 02:27:02;;;;;;;16.45;11.27;;;15.70;99.90;;;15.07;100.00;100757.09;4168524;28;20068;-76
2023/06/19 02:29:02;;;;;;;16.05;10.70;;;15.60;99.90;;;15.07;100.00;100758.94;4186281;28;20107;-76
2023/06/19 02:31:03;;;;;;;14.63;10.38;;;15.60;99.90;;;14.99;100.00;100749.25;4168399;28;20041;-76
2023/06/19 02:33:04;;;;;;;17.67;10.65;;;15.60;99.90;;;15.06;100.00;100762.59;4185877;28;20024;-76
2023/06/19 02:35:09;;;;;;;18.67;10.43;;;15.60;99.90;;;15.05;100.00;100764.44;4185959;28;20441;-76
2023/06/19 02:37:10;;;;;;;16.25;10.98;;;15.60;99.90;;;15.03;100.00;100752.31;4185704;28;20018;-76
2023/06/19 02:39:11;;;;;;;16.38;10.70;;;15.60;99.90;;;15.02;100.00;100758.66;4168240;28;20397;-76
2023/06/19 02:41:12;;;;;;;21.90;12.02;;;15.60;99.90;;;15.01;100.00;100754.34;4168553;28;20026;-76
2023/06/19 02:43:13;;;;;;;19.60;11.95;;;15.60;99.90;;;15.00;100.00;100755.34;4168043;28;20028;-76
2023/06/19 02:45:15;;;;;;;15.25;10.48;;;15.60;99.90;;;14.98;100.00;100755.56;4186034;28;20024;-76
2023/06/19 02:47:16;;;;;;;17.92;10.07;;;15.50;99.90;;;14.92;100.00;100743.84;4168302;28;20037;-76
2023/06/19 02:49:17;;;;;;;12.32;10.45;;;15.50;99.90;;;14.94;100.00;100749.78;4168124;28;20512;-76
2023/06/19 02:51:18;;;;;;;20.38;11.43;;;15.50;99.90;;;14.91;100.00;100746.66;4168157;28;20033;-76
2023/06/19 02:53:18;;;;;;;16.80;10.35;;;15.50;99.90;;;14.90;100.00;100745.81;4168238;28;20025;-76
2023/06/19 02:55:19;;;;;;;15.85;11.32;;;15.50;99.90;;;14.91;100.00;100757.28;4185754;28;20068;-76
2023/06/19 02:57:20;;;;;;;15.05;10.93;;;15.40;99.90;;;14.88;100.00;100753.16;4184506;28;20542;-76
2023/06/19 02:59:22;;;;;;;16.55;11.32;;;15.40;99.90;;;14.80;100.00;100742.66;4185643;28;20100;-76
2023/06/19 03:01:22;;;;;;;20.42;11.75;;;15.40;99.90;;;14.84;100.00;100751.06;4168267;28;20393;-76
2023/06/19 03:03:23;;;;;;;16.23;9.98;;;15.40;99.90;;;14.79;100.00;100746.28;4185653;28;20036;-76
2023/06/19 03:05:26;;;;;;;17.60;11.18;;;15.30;99.90;;;14.76;100.00;100746.66;4185608;28;20025;-76
2023/06/19 03:07:28;;;;;;;18.50;11.17;;;15.30;99.90;;;14.72;100.00;100752.53;4184289;28;20029;-76
2023/06/19 03:09:29;;;;;;;16.88;10.77;;;15.30;99.90;;;14.63;100.00;100745.66;4186218;28;20025;-76
2023/06/19 03:11:30;;;;;;;15.65;10.45;;;15.30;99.90;;;14.61;100.00;100745.00;4185831;28;20065;-76
2023/06/19 03:13:53;;;;;;;17.48;10.70;;;15.20;99.90;;;14.54;100.00;100736.13;4167524;28;20029;-76
2023/06/19 03:15:54;;;;;;;13.43;10.18;;;15.20;99.90;;;14.54;100.00;100742.28;4156580;28;20022;-76
2023/06/19 03:17:55;;;;;;;13.50;9.63;;;15.10;99.90;;;14.50;100.00;100737.50;4185229;28;20028;-76
2023/06/19 03:19:56;;;;;;;11.77;10.13;;;15.10;99.90;;;14.47;100.00;100737.84;4151439;28;20061;-76
2023/06/19 03:21:57;;;;;;;13.68;9.48;;;15.00;99.90;;;14.45;100.00;100737.22;4167546;28;20024;-75
2023/06/19 03:23:58;;;;;;;15.35;8.93;;;15.00;99.90;;;14.43;100.00;100742.69;4185285;28;20029;-76
2023/06/19 03:25:59;;;;;;;12.23;9.50;;;15.00;99.90;;;14.40;100.00;100740.41;4167815;28;20507;-76
2023/06/19 03:28:01;;;;;;;10.75;8.02;;;15.00;99.90;;;14.30;100.00;100732.69;4185304;28;20036;-76
2023/06/19 03:30:08;;;;;;;12.48;8.68;;;14.90;99.90;;;14.31;100.00;100736.13;4167396;28;20036;-76
2023/06/19 03:32:09;;;;;;;15.70;9.35;;;14.90;99.90;;;14.37;100.00;100741.59;4168079;28;20500;-76
2023/06/19 03:34:09;;;;;;;16.52;9.98;;;14.90;99.90;;;14.44;100.00;100738.22;4185151;28;20087;-76
2023/06/19 03:36:10;;;;;;;15.57;10.43;;;15.00;99.90;;;14.46;100.00;100730.88;4167665;28;20025;-76
2023/06/19 03:38:11;;;;;;;15.85;10.10;;;15.10;99.90;;;14.55;100.00;100738.59;4167360;28;20587;-76
2023/06/19 03:40:13;;;;;;;13.23;9.93;;;15.10;99.90;;;14.55;100.00;100741.25;4185428;28;20059;-76
2023/06/19 03:42:14;;;;;;;14.55;9.77;;;15.10;99.90;;;14.51;100.00;100734.66;4167378;28;20025;-76
2023/06/19 03:44:15;;;;;;;12.80;9.55;;;15.10;99.90;;;14.52;100.00;100740.78;4170664;28;20091;-76
2023/06/19 03:46:16;;;;;;;14.73;10.07;;;15.10;99.90;;;14.60;100.00;100751.34;4151011;28;20033;-76
2023/06/19 03:48:17;;;;;;;17.60;10.55;;;15.20;99.90;;;14.59;100.00;100747.03;4167502;28;20494;-76
2023/06/19 03:50:19;;;;;;;15.30;9.82;;;15.10;99.90;;;14.57;100.00;100743.72;4184731;28;20028;-76
2023/06/19 03:52:20;;;;;;;13.07;9.07;;;15.10;99.90;;;14.56;100.00;100742.91;4183872;28;20096;-76
2023/06/19 03:54:21;;;;;;;14.07;9.73;;;15.10;99.90;;;14.55;100.00;100735.09;4184862;28;20037;-76
2023/06/19 03:56:22;;;;;;;11.25;8.35;;;15.10;99.90;;;14.52;100.00;100738.13;4185173;28;20029;-76
2023/06/19 03:58:23;;;;;;;11.20;8.63;;;15.10;99.90;;;14.47;100.00;100732.53;4185227;28;20504;-76
2023/06/19 04:00:24;;;;;;;18.55;10.40;;;15.10;99.90;;;14.50;100.00;100738.31;4167302;28;20572;-76
2023/06/19 04:02:25;;;;;;;15.88;9.93;;;15.10;99.90;;;14.44;100.00;100732.91;4184648;28;20025;-76
2023/06/19 04:04:26;;;;;;;15.07;9.07;;;15.10;99.90;;;14.59;100.00;100753.16;4200274;28;20071;-76
2023/06/19 04:06:27;;;;;;;11.43;8.68;;;15.20;99.90;;;14.63;100.00;100757.09;4167434;28;20440;-76
2023/06/19 04:08:28;;;;;;;14.48;11.23;;;15.20;99.90;;;14.67;100.00;100754.88;4185246;28;20022;-76
2023/06/19 04:10:29;;;;;;;16.58;10.57;;;15.30;99.90;;;14.77;100.00;100760.78;4185310;28;20025;-76
2023/06/19 04:12:30;;;;;;;16.13;10.35;;;15.30;99.90;;;14.81;100.00;100764.72;4184885;28;20091;-76
2023/06/19 04:14:31;;;;;;;16.83;9.60;;;15.40;99.90;;;14.88;100.00;100765.63;4167139;28;20038;-76
2023/06/19 04:16:31;;;;;;;29.00;11.60;;;15.40;99.90;;;14.89;100.00;100757.47;4167332;28;20053;-76
2023/06/19 04:18:32;;;;;;;15.93;10.23;;;15.50;99.90;;;15.02;100.00;100763.97;4184744;28;20060;-76
2023/06/19 04:20:33;;;;;;;12.88;8.00;;;15.50;99.90;;;14.99;100.00;100754.56;4185184;28;20017;-76
2023/06/19 04:22:34;;;;;;;13.95;9.55;;;15.60;99.90;;;15.00;100.00;100756.19;4167438;28;20025;-76
2023/06/19 04:24:35;;;;;;;35.63;11.77;;;15.60;99.90;;;15.02;100.00;100764.81;4184857;28;20484;-76
2023/06/19 04:26:36;;;;;;;18.55;11.35;;;15.60;99.90;;;15.09;100.00;100765.69;4167156;28;20038;-76
2023/06/19 04:28:37;;;;;;;14.15;10.23;;;15.70;99.90;;;15.17;100.00;100768.25;4184824;28;20033;-76
2023/06/19 04:30:42;;;;;;;14.50;10.52;;;15.70;99.90;;;15.24;100.00;100766.50;4184900;28;20021;-76
2023/06/19 04:32:43;;;;;;;15.48;9.93;;;15.80;99.90;;;15.31;100.00;100758.63;4184493;28;20043;-76
2023/06/19 04:34:45;;;;;;;14.15;9.30;;;15.80;99.90;;;15.34;100.00;100752.94;4183613;28;20029;-76
2023/06/19 04:36:47;;;;;;;19.52;9.15;;;15.90;99.90;;;15.43;100.00;100757.13;4167358;28;20025;-76
2023/06/19 04:38:51;;;;;;;24.65;9.52;;;16.00;99.90;;;15.41;100.00;100749.34;4150964;28;20508;-76
2023/06/19 04:40:52;;;;;;;22.20;9.70;;;16.00;99.90;;;15.49;100.00;100762.56;4167472;28;20037;-76
2023/06/19 04:42:53;;;;;;;32.47;10.13;;;16.10;99.90;;;15.52;100.00;100758.72;4184747;28;20029;-76
2023/06/19 04:44:55;;;;;;;10.90;8.10;;;16.10;99.90;;;15.53;100.00;100768.31;4167072;28;20029;-76
2023/06/19 04:47:00;;;;;;;24.48;9.85;;;16.10;99.90;;;15.50;100.00;100753.56;4184789;28;20017;-76
2023/06/19 04:49:03;;;;;;;19.73;8.20;;;16.10;99.90;;;15.60;100.00;100763.06;4167500;28;20021;-76
2023/06/19 04:51:04;;;;;;;31.33;9.75;;;16.10;99.90;;;15.57;100.00;100744.84;4167222;28;20022;-76
2023/06/19 04:53:05;;;;;;;14.02;7.72;;;16.10;99.90;;;15.64;100.00;100753.72;4167359;28;20090;-76
2023/06/19 04:55:10;;;;;;;21.52;8.07;;;16.20;99.90;;;15.64;100.00;100749.22;4184777;28;20025;-76
2023/06/19 04:57:11;;;;;;;23.25;8.93;;;16.20;99.90;;;15.66;100.00;100743.72;4184691;28;20146;-76
2023/06/19 04:59:12;;;;;;;19.90;8.98;;;16.20;99.90;;;15.72;100.00;100745.63;4184555;28;20029;-76
2023/06/19 05:01:13;;;;;;;13.85;8.38;;;16.20;99.90;;;15.74;100.00;100744.41;4186009;28;20438;-76
2023/06/19 05:03:14;;;;;;;29.75;9.23;;;16.20;99.90;;;15.74;100.00;100749.72;4169726;28;20064;-76
2023/06/19 05:05:16;;;;;;;10.13;7.38;;;16.30;99.90;;;15.74;100.00;100735.63;4187516;28;20500;-76
2023/06/19 05:07:17;;;;;;;11.13;8.40;;;16.30;99.90;;;15.80;100.00;100751.63;4153567;28;20113;-76
2023/06/19 05:09:19;;;;;;;17.60;8.60;;;16.30;99.90;;;15.84;100.00;100755.56;4169891;28;20044;-76
2023/06/19 05:11:20;;;;;;;14.65;7.70;;;16.40;99.90;;;15.92;100.00;100760.75;4169998;28;20088;-76
2023/06/19 05:13:21;;;;;;;11.18;7.88;;;16.40;99.90;;;15.92;100.00;100751.94;4169934;28;20032;-76
2023/06/19 05:15:22;;;;;;;13.75;8.10;;;16.50;99.90;;;16.04;100.00;100755.75;4169790;28;20028;-76
2023/06/19 05:17:23;;;;;;;19.42;8.30;;;16.50;99.90;;;16.09;100.00;100758.69;4187234;28;20025;-76
2023/06/19 05:19:24;;;;;;;13.07;7.75;;;16.50;99.90;;;16.14;100.00;100763.41;4187201;28;20076;-76
2023/06/19 05:21:24;;;;;;;15.05;8.35;;;16.60;99.90;;;16.15;100.00;100757.09;4187273;28;20037;-76
2023/06/19 05:23:25;;;;;;;22.52;9.60;;;16.60;99.90;;;16.21;100.00;100769.63;4169354;28;20029;-76
2023/06/19 05:25:27;;;;;;;14.10;9.50;;;16.70;99.90;;;16.13;100.00;100748.47;4169698;28;20477;-76
2023/06/19 05:27:28;;;;;;;15.05;8.57;;;16.70;99.90;;;16.30;100.00;100761.31;4187476;28;20013;-76
2023/06/19 05:29:30;;;;;;;18.73;9.23;;;16.80;99.90;;;16.32;100.00;100764.59;4169557;28;20028;-76
2023/06/19 05:31:31;;;;;;;13.25;8.57;;;16.80;99.90;;;16.36;100.00;100757.88;4187243;28;20086;-76
2023/06/19 05:33:32;;;;;;;13.40;8.27;;;16.80;99.90;;;16.37;100.00;100751.53;4185628;28;20029;-76
2023/06/19 05:35:33;;;;;;;12.25;8.13;;;16.90;99.90;;;16.42;100.00;100748.28;4187201;28;20404;-76
2023/06/19 05:37:34;;;;;;;12.45;8.95;;;16.90;99.90;;;16.52;100.00;100752.25;4187107;28;20051;-76
2023/06/19 05:39:35;;;;;;;13.75;9.05;;;17.00;99.90;;;16.62;100.00;100743.97;4187008;28;20052;-76
2023/06/19 05:41:35;;;;;;;13.23;8.82;;;17.00;99.90;;;16.71;100.00;100752.63;4186841;28;20045;-76
2023/06/19 05:43:36;;;;;;;17.77;10.23;;;17.10;99.90;;;16.81;100.00;100755.75;4187195;28;20021;-76
2023/06/19 05:45:38;;;;;;;14.55;9.45;;;17.20;99.90;;;16.89;100.00;100755.59;4186906;28;20056;-76
2023/06/19 05:47:39;;;;;;;11.10;9.07;;;17.30;99.90;;;16.92;100.00;100757.88;4186671;28;20491;-76
2023/06/19 05:49:40;;;;;;;15.63;9.75;;;17.40;99.90;;;16.99;100.00;100756.06;4186929;28;20028;-76
2023/06/19 05:51:41;;;;;;;15.57;9.35;;;17.40;99.90;;;17.02;100.00;100750.34;4186912;28;20037;-76
2023/06/19 05:53:43;;;;;;;11.48;7.85;;;17.50;99.90;;;17.09;100.00;100745.84;4169063;28;20021;-76
2023/06/19 05:55:44;;;;;;;11.65;8.23;;;17.50;99.90;;;17.08;100.00;100739.69;4169182;28;20045;-76
2023/06/19 05:57:45;;;;;;;10.93;9.02;;;17.60;99.90;;;17.36;100.00;100752.09;4169313;28;20025;-76
2023/06/19 05:59:49;;;;;;;11.38;8.65;;;17.70;99.90;;;17.49;100.00;100746.84;4186773;28;20032;-76
2023/06/19 06:01:50;;;;;;;12.90;9.32;;;17.90;99.90;;;17.47;100.00;100731.00;4169178;28;20065;-76
2023/06/19 06:03:51;;;;;;;12.32;9.20;;;18.00;99.90;;;17.64;100.00;100751.03;4186289;28;20048;-76
2023/06/19 06:05:52;;;;;;;17.35;10.10;;;18.10;99.90;;;17.73;100.00;100751.66;4186639;28;20025;-76
2023/06/19 06:07:54;;;;;;;18.95;10.45;;;18.20;99.90;;;17.80;100.00;100754.34;4185586;28;20032;-76
2023/06/19 06:09:55;;;;;;;20.23;11.23;;;18.30;99.90;;;17.87;100.00;100741.81;4168872;28;20030;-76
2023/06/19 06:11:56;;;;;;;19.20;12.10;;;18.40;99.90;;;18.10;100.00;100763.59;4185912;28;20036;-76
2023/06/19 06:13:57;;;;;;;19.48;13.18;;;18.50;99.90;;;18.23;100.00;100756.44;4186076;28;20051;-76
2023/06/19 06:15:58;;;;;;;20.58;13.23;;;18.60;99.90;;;18.37;100.00;100751.88;4186520;28;20404;-76
2023/06/19 06:17:59;;;;;;;24.25;13.35;;;18.80;99.90;;;18.52;100.00;100757.03;4168444;28;20048;-76
2023/06/19 06:19:59;;;;;;;16.27;12.60;;;18.90;99.90;;;18.59;100.00;100750.69;4168785;28;20022;-76
2023/06/19 06:22:00;;;;;;;14.88;11.02;;;19.00;99.90;;;18.91;100.00;100764.16;4163277;28;20045;-76
2023/06/19 06:24:02;;;;;;;24.70;15.07;;;19.30;99.90;;;19.07;100.00;100774.41;4186380;28;20053;-76
2023/06/19 06:26:03;;;;;;;15.70;11.10;;;19.50;99.90;;;19.20;100.00;100775.19;4168717;28;20079;-76
2023/06/19 06:28:05;;;;;;;12.40;10.85;;;19.60;99.90;;;19.24;100.00;100764.88;4168861;28;20018;-76
2023/06/19 06:30:06;;;;;;;11.52;9.60;;;19.70;99.90;;;19.33;100.00;100758.28;4186264;28;20055;-76
2023/06/19 06:32:09;;;;;;;13.23;8.70;;;19.80;99.90;;;19.64;100.00;100771.75;4168405;28;20028;-76
2023/06/19 06:34:10;;;;;;;10.13;7.93;;;20.10;99.90;;;19.87;100.00;100776.53;4168802;28;20446;-76
2023/06/19 06:36:11;;;;;;;9.90;7.80;;;20.20;99.90;;;19.95;100.00;100775.47;4168376;28;20052;-76
2023/06/19 06:38:11;;;;;;;9.38;7.32;;;20.40;99.90;;;20.11;100.00;100781.13;4151857;28;20124;-76
2023/06/19 06:40:12;;;;;;;11.77;8.23;;;20.50;99.90;;;20.50;100.00;100795.25;4186249;28;20033;-76
2023/06/19 06:42:13;;;;;;;11.48;9.57;;;20.70;99.90;;;20.58;100.00;100795.00;4186073;28;20029;-76
2023/06/19 06:44:14;;;;;;;11.02;8.27;;;20.80;99.90;;;20.73;100.00;100815.03;4168283;28;20032;-76
2023/06/19 06:46:15;;;;;;;14.05;9.48;;;21.00;99.90;;;20.73;100.00;100798.13;4151975;28;20050;-76
2023/06/19 06:48:16;;;;;;;16.50;10.80;;;21.10;99.90;;;20.62;100.00;100814.94;4168173;28;20100;-76
2023/06/19 06:50:17;;;;;;;15.05;11.40;;;21.10;99.90;;;20.50;100.00;100811.34;4185954;28;20024;-76
2023/06/19 06:52:18;;;;;;;15.70;12.00;;;21.00;99.90;;;20.41;100.00;100821.50;4168225;28;20075;-77
2023/06/19 06:54:19;;;;;;;15.82;9.52;;;21.00;99.90;;;20.38;100.00;100827.31;4186055;28;20033;-76
2023/06/19 06:56:20;;;;;;;14.52;11.43;;;20.90;99.90;;;20.26;100.00;100824.50;4167949;28;20492;-76
2023/06/19 06:58:20;;;;;;;16.17;10.70;;;20.80;99.90;;;20.30;100.00;100825.72;4168125;28;20045;-76
2023/06/19 07:00:22;;;;;;;17.42;11.80;;;20.80;99.90;;;20.21;100.00;100823.50;4185749;28;20082;-76
2023/06/19 07:02:23;;;;;;;15.45;10.82;;;20.70;99.90;;;20.18;100.00;100818.56;4185431;28;20033;-76
2023/06/19 07:04:24;;;;;;;12.95;8.60;;;20.60;99.90;;;20.19;100.00;100807.63;4185722;28;20037;-76
2023/06/19 07:06:25;;;;;;;12.93;8.60;;;20.60;99.90;;;20.23;100.00;100814.19;4168030;28;20053;-76
2023/06/19 07:08:26;;;;;;;15.55;10.25;;;20.60;99.90;;;20.20;100.00;100813.81;4185645;28;20051;-76
2023/06/19 07:10:26;;;;;;;12.00;8.73;;;20.60;99.90;;;20.14;100.00;100806.63;4185932;28;20024;-76
2023/06/19 07:12:27;;;;;;;16.67;10.57;;;20.60;99.90;;;20.12;100.00;100814.09;4184359;28;20029;-76
2023/06/19 07:14:28;;;;;;;13.52;9.65;;;20.50;99.90;;;20.22;100.00;100814.44;4185601;28;20033;-76
2023/06/19 07:16:29;;;;;;;15.90;11.50;;;20.50;99.90;;;20.23;100.00;100816.88;4185598;28;20036;-77
2023/06/19 07:18:30;;;;;;;16.02;10.95;;;20.50;99.90;;;20.26;100.00;100823.69;4167553;28;20045;-77
2023/06/19 07:20:31;;;;;;;17.52;11.80;;;20.50;99.90;;;20.38;100.00;100830.00;4185099;28;20037;-76
2023/06/19 07:22:33;;;;;;;15.15;11.20;;;20.60;99.90;;;20.55;100.00;100831.09;4185506;28;20024;-76
2023/06/19 07:24:33;;;;;;;13.48;10.50;;;20.70;99.90;;;20.66;100.00;100829.56;4185049;28;20025;-76
2023/06/19 07:26:35;;;;;;;14.63;10.60;;;20.90;99.90;;;20.78;100.00;100838.53;4185594;28;20033;-76
2023/06/19 07:28:38;;;;;;;15.27;10.27;;;20.90;99.90;;;20.88;100.00;100828.09;4185213;28;20392;-76
2023/06/19 07:30:39;;;;;;;;;;;21.10;99.90;;;20.92;100.00;100829.31;4185838;28;20564;-76
2023/06/19 07:32:40;;;;;;;12.55;9.80;;;21.20;99.90;;;21.13;100.00;100830.78;4167406;28;20003;-76
2023/06/19 07:34:41;;;;;;;14.13;10.50;;;21.30;99.90;;;21.30;100.00;100821.09;4185319;28;20081;-76
2023/06/19 07:36:42;;;;;;;11.38;9.20;;;21.50;99.90;;;21.47;100.00;100822.94;4167531;28;20072;-76
2023/06/19 07:38:45;;;;;;;14.55;9.90;;;21.60;99.90;;;21.63;100.00;100815.31;4185586;28;20028;-76
2023/06/19 07:40:45;;;;;;;14.18;9.95;;;21.80;99.90;;;21.74;100.00;100818.06;4167660;28;20502;-76
2023/06/19 07:42:46;;;;;;;19.25;12.55;;;21.90;99.90;;;21.91;100.00;100826.34;4151127;28;20029;-77
2023/06/19 07:44:47;;;;;;;11.95;9.23;;;22.00;99.90;;;22.00;100.00;100816.91;4185133;28;20499;-76
2023/06/19 07:46:48;;;;;;;16.67;10.75;;;22.10;99.90;;;22.21;100.00;100824.44;4185191;28;20055;-77
2023/06/19 07:48:49;;;;;;;17.02;9.65;;;22.30;99.90;;;22.21;100.00;100799.44;4185047;28;20029;-76
2023/06/19 07:50:50;;;;;;;13.20;9.38;;;22.50;99.90;;;22.59;100.00;100827.56;4185118;28;20075;-76
2023/06/19 07:52:51;;;;;;;13.85;9.23;;;22.70;99.90;;;22.71;100.00;100814.13;4167347;28;20147;-76
2023/06/19 07:54:57;;;;;;;11.68;8.55;;;23.00;99.90;;;22.79;100.00;100821.06;4151002;28;20022;-76
2023/06/19 07:56:58;;;;;;;10.70;8.18;;;23.10;99.90;;;22.92;100.00;100832.38;4167846;28;20037;-76
2023/06/19 07:58:59;;;;;;;9.77;7.68;;;23.20;99.90;;;23.05;100.00;100818.69;4185092;28;20036;-77
2023/06/19 08:01:00;;;;;;;10.75;7.60;;;23.30;99.90;;;23.12;100.00;100823.94;4167297;28;20029;-76
2023/06/19 08:03:01;;;;;;;9.32;6.95;;;23.40;99.90;;;23.10;100.00;100820.66;4167202;28;20021;-76
2023/06/19 08:05:02;;;;;;;12.52;8.63;;;23.40;99.90;;;23.11;100.00;100819.63;4200463;28;20376;-76
2023/06/19 08:07:04;;;;;;;13.45;8.15;;;23.40;99.90;;;23.09;100.00;100824.41;4167550;28;20120;-76
2023/06/19 08:09:04;;;;;;;14.38;8.02;;;23.50;99.90;;;22.88;100.00;100811.59;4167262;28;20520;-76
2023/06/19 08:11:05;;;;;;;9.65;6.65;;;23.40;99.90;;;23.04;100.00;100819.75;4167650;28;20028;-76
2023/06/19 08:13:06;;;;;;;13.60;8.00;;;23.50;99.90;;;23.13;100.00;100823.72;4150840;28;20030;-76